createdAt,value
2018-03-03T00:01:40.488Z,-2.10
2018-03-03T00:06:43.824Z,-2.10
2018-03-03T00:11:47.052Z,-1.90
2018-03-03T00:16:50.297Z,-1.80
2018-03-03T00:21:53.573Z,-1.60
2018-03-03T00:26:56.910Z,-1.50
2018-03-03T00:32:00.290Z,-1.50
2018-03-03T00:37:03.580Z,-1.40
2018-03-03T00:42:07.891Z,-1.40
2018-03-03T00:47:11.343Z,-1.40
2018-03-03T00:52:16.232Z,-1.20
2018-03-03T00:57:20.885Z,-1.20
2018-03-03T01:02:25.451Z,-1.20
2018-03-03T01:07:28.672Z,-1.30
2018-03-03T01:12:32.308Z,-1.20
2018-03-03T01:17:53.816Z,-1.20
2018-03-03T01:22:57.696Z,-1.20
2018-03-03T01:28:01.047Z,-1.20
2018-03-03T01:33:04.298Z,-1.20
2018-03-03T01:38:07.520Z,-1.10
2018-03-03T01:43:10.873Z,-1.20
2018-03-03T01:48:14.247Z,-1.10
2018-03-03T01:53:17.484Z,-1.20
2018-03-03T01:58:37.848Z,-1.20
2018-03-03T02:03:41.302Z,-1.20
2018-03-03T02:08:44.932Z,-1.20
2018-03-03T02:13:49.513Z,-1.20
2018-03-03T02:18:53.873Z,-1.20
2018-03-03T02:23:57.219Z,-1.20
2018-03-03T02:29:00.805Z,-1.20
2018-03-03T02:34:06.164Z,-1.20
2018-03-03T02:39:09.538Z,-1.20
2018-03-03T02:44:12.865Z,-1.30
2018-03-03T02:49:16.146Z,-1.30
2018-03-03T02:54:19.488Z,-1.30
2018-03-03T02:59:22.726Z,-1.30
2018-03-03T03:04:26.048Z,-1.40
2018-03-03T03:09:31.489Z,-1.50
2018-03-03T03:14:34.710Z,-1.50
2018-03-03T03:19:37.973Z,-1.60
2018-03-03T03:24:41.679Z,-1.80
2018-03-03T03:29:45.843Z,-1.70
2018-03-03T03:40:24.333Z,-1.80
2018-03-03T03:45:27.677Z,-1.80
2018-03-03T03:50:30.919Z,-1.80
2018-03-03T03:55:34.141Z,-1.90
2018-03-03T04:00:37.365Z,-1.90
2018-03-03T04:05:40.698Z,-2.20
2018-03-03T04:10:43.925Z,-2.50
2018-03-03T04:15:47.550Z,-2.90
2018-03-03T04:20:50.806Z,-2.90
2018-03-03T04:25:54.072Z,-2.90
2018-03-03T04:30:57.373Z,-2.80
2018-03-03T04:36:00.622Z,-3.00
2018-03-03T04:41:03.859Z,-3.20
2018-03-03T04:46:07.477Z,-3.10
2018-03-03T04:51:11.105Z,-3.30
2018-03-03T04:56:14.319Z,-3.30
2018-03-03T05:01:27.463Z,-3.60
2018-03-03T05:06:40.603Z,-3.70
2018-03-03T05:11:43.849Z,-3.70
2018-03-03T05:22:28.852Z,-3.80
2018-03-03T05:27:38.848Z,-3.80
2018-03-03T05:38:21.990Z,-3.40
2018-03-03T05:49:07.323Z,-3.10
2018-03-03T05:54:16.627Z,-3.10
2018-03-03T05:59:26.456Z,-3.10
2018-03-03T06:04:31.585Z,-2.50
2018-03-03T06:09:35.376Z,-2.50
2018-03-03T06:14:38.596Z,-2.50
2018-03-03T06:19:41.828Z,-2.60
2018-03-03T06:24:45.044Z,-2.60
2018-03-03T06:29:48.692Z,-2.80
2018-03-03T06:34:51.932Z,-2.80
2018-03-03T06:39:55.148Z,-2.80
2018-03-03T06:44:58.469Z,-2.80
2018-03-03T06:50:01.778Z,-2.40
2018-03-03T06:55:05.077Z,-2.30
2018-03-03T07:00:08.396Z,-2.30
2018-03-03T07:05:11.616Z,-2.00
2018-03-03T07:10:14.832Z,-2.20
2018-03-03T07:15:18.050Z,-2.20
2018-03-03T07:20:21.260Z,-2.10
2018-03-03T07:25:24.471Z,-1.80
2018-03-03T07:30:27.828Z,-1.40
2018-03-03T07:35:31.484Z,-0.50
2018-03-03T07:40:34.704Z,-0.50
2018-03-03T07:45:38.019Z,-0.10
2018-03-03T07:50:41.264Z,0.10
2018-03-03T07:55:44.527Z,0.50
2018-03-03T08:00:47.744Z,0.60
2018-03-03T08:05:50.972Z,0.80
2018-03-03T08:10:54.255Z,0.90
2018-03-03T08:15:57.455Z,0.90
2018-03-03T08:21:00.697Z,1.20
2018-03-03T08:26:04.026Z,1.30
2018-03-03T08:31:07.278Z,1.30
2018-03-03T08:36:10.492Z,1.10
2018-03-03T08:41:13.734Z,1.30
2018-03-03T08:46:17.421Z,2.00
2018-03-03T08:51:20.778Z,1.90
2018-03-03T08:56:23.990Z,2.10
2018-03-03T09:01:27.215Z,2.00
2018-03-03T09:06:30.479Z,2.00
2018-03-03T09:11:34.087Z,1.80
2018-03-03T09:16:37.890Z,2.10
2018-03-03T09:21:42.175Z,2.50
2018-03-03T09:26:45.619Z,2.50
2018-03-03T09:31:48.856Z,3.20
2018-03-03T09:36:52.089Z,3.60
2018-03-03T09:46:51.690Z,3.50
2018-03-03T09:51:54.920Z,3.50
2018-03-03T09:56:58.245Z,3.40
2018-03-03T10:02:06.291Z,3.10
2018-03-03T10:07:05.898Z,2.90
2018-03-03T10:12:09.523Z,3.20
2018-03-03T10:17:13.216Z,3.70
2018-03-03T10:22:16.458Z,3.70
2018-03-03T10:27:19.821Z,4.10
2018-03-03T10:32:23.064Z,4.50
2018-03-03T10:37:26.319Z,4.50
2018-03-03T10:42:30.977Z,3.60
2018-03-03T10:47:34.227Z,3.60
2018-03-03T10:52:37.580Z,3.90
2018-03-03T10:57:41.288Z,4.50
2018-03-03T11:02:44.951Z,5.30
2018-03-03T11:07:48.173Z,5.30
2018-03-03T11:12:51.502Z,5.40
2018-03-03T11:17:55.145Z,5.20
2018-03-03T11:22:58.358Z,5.20
2018-03-03T11:28:01.577Z,6.00
2018-03-03T11:33:05.004Z,6.30
2018-03-03T11:38:08.626Z,5.90
2018-03-03T11:43:11.863Z,5.90
2018-03-03T11:48:15.063Z,5.30
2018-03-03T11:53:18.277Z,5.20
2018-03-03T11:58:21.492Z,4.80
2018-03-03T12:03:24.825Z,4.90
2018-03-03T12:08:28.540Z,6.00
2018-03-03T12:13:32.143Z,6.00
2018-03-03T12:18:35.802Z,5.70
2018-03-03T12:23:39.079Z,5.70
2018-03-03T12:28:42.312Z,5.60
2018-03-03T12:33:45.695Z,5.20
2018-03-03T12:38:48.932Z,5.30
2018-03-03T12:43:52.261Z,5.40
2018-03-03T12:48:55.866Z,5.80
2018-03-03T12:53:59.152Z,5.80
2018-03-03T12:59:02.424Z,5.90
2018-03-03T13:04:05.645Z,6.20
2018-03-03T13:09:08.871Z,6.10
2018-03-03T13:14:12.106Z,5.90
2018-03-03T13:19:15.336Z,5.90
2018-03-03T13:24:18.677Z,5.90
2018-03-03T13:29:22.313Z,5.40
2018-03-03T13:34:25.596Z,5.40
2018-03-03T13:39:28.916Z,5.10
2018-03-03T13:44:32.295Z,5.10
2018-03-03T13:49:35.679Z,5.30
2018-03-03T13:54:38.990Z,5.30
2018-03-03T13:59:42.288Z,5.00
2018-03-03T14:04:45.517Z,4.70
2018-03-03T14:09:49.152Z,4.00
2018-03-03T14:14:52.504Z,4.00
2018-03-03T14:19:55.756Z,4.10
2018-03-03T14:24:59.081Z,4.10
2018-03-03T14:30:02.432Z,4.20
2018-03-03T14:35:06.266Z,4.30
2018-03-03T14:40:10.562Z,4.30
2018-03-03T14:45:13.777Z,4.50
2018-03-03T14:50:17.479Z,4.70
2018-03-03T14:55:21.323Z,4.70
2018-03-03T15:00:24.527Z,4.80
2018-03-03T15:05:27.872Z,4.80
2018-03-03T15:10:31.146Z,4.70
2018-03-03T15:15:34.515Z,4.50
2018-03-03T15:20:38.116Z,4.10
2018-03-03T15:25:41.735Z,4.10
2018-03-03T15:30:45.357Z,3.80
2018-03-03T15:35:48.752Z,3.90
2018-03-03T15:40:52.369Z,3.40
2018-03-03T15:45:55.585Z,3.40
2018-03-03T15:50:58.843Z,3.40
2018-03-03T15:56:02.055Z,3.40
2018-03-03T16:01:05.297Z,3.30
2018-03-03T16:06:08.521Z,3.30
2018-03-03T16:11:11.771Z,3.40
2018-03-03T16:16:15.056Z,3.40
2018-03-03T16:21:18.687Z,3.30
2018-03-03T16:26:23.170Z,3.30
2018-03-03T16:31:26.395Z,3.40
2018-03-03T16:36:30.051Z,3.40
2018-03-03T16:41:33.285Z,3.40
2018-03-03T16:46:36.507Z,3.10
2018-03-03T16:51:40.164Z,2.80
2018-03-03T16:56:43.429Z,2.80
2018-03-03T17:01:47.099Z,2.60
2018-03-03T17:06:50.307Z,2.60
2018-03-03T17:11:53.536Z,2.60
2018-03-03T17:16:57.147Z,2.60
2018-03-03T17:22:00.747Z,2.60
2018-03-03T17:27:04.160Z,2.60
2018-03-03T17:32:07.837Z,2.50
2018-03-03T17:37:11.171Z,2.50
2018-03-03T17:42:14.805Z,2.50
2018-03-03T17:47:18.051Z,2.50
2018-03-03T17:52:21.364Z,2.40
2018-03-03T17:57:24.583Z,2.30
2018-03-03T18:02:28.291Z,2.20
2018-03-03T18:07:31.508Z,2.20
2018-03-03T18:12:35.967Z,2.10
2018-03-03T18:17:39.180Z,2.10
2018-03-03T18:22:42.435Z,2.20
2018-03-03T18:27:45.696Z,2.10
2018-03-03T18:32:49.002Z,2.00
2018-03-03T18:37:52.245Z,1.90
2018-03-03T18:42:55.470Z,1.60
2018-03-03T18:47:58.697Z,1.60
2018-03-03T18:53:01.919Z,1.60
2018-03-03T18:58:06.055Z,1.50
2018-03-03T19:03:09.681Z,1.30
2018-03-03T19:08:13.003Z,1.30
2018-03-03T19:13:16.218Z,1.40
2018-03-03T19:18:19.616Z,1.40
2018-03-03T19:23:22.846Z,1.40
2018-03-03T19:28:26.172Z,1.30
2018-03-03T19:33:29.398Z,1.30
2018-03-03T19:38:32.676Z,1.20
2018-03-03T19:43:36.294Z,1.20
2018-03-03T19:48:39.929Z,1.20
2018-03-03T19:53:43.338Z,1.20
2018-03-03T19:58:46.556Z,1.10
2018-03-03T20:03:49.916Z,1.10
2018-03-03T20:08:53.718Z,1.00
2018-03-03T20:13:56.992Z,1.00
2018-03-03T20:19:00.221Z,1.00
2018-03-03T20:24:03.836Z,1.10
2018-03-03T20:29:07.511Z,1.00
2018-03-03T20:34:10.847Z,1.00
2018-03-03T20:39:15.248Z,1.00
2018-03-03T20:44:18.649Z,1.00
2018-03-03T20:49:22.083Z,1.00
2018-03-03T20:54:30.965Z,1.00
2018-03-03T20:59:36.061Z,0.90
2018-03-03T21:04:40.232Z,0.90
2018-03-03T21:09:43.695Z,1.00
2018-03-03T21:14:49.687Z,0.80
2018-03-03T21:19:55.237Z,0.80
2018-03-03T21:24:58.713Z,0.80
2018-03-03T21:30:02.556Z,0.70
2018-03-03T21:35:09.278Z,0.60
2018-03-03T21:40:12.733Z,0.60
2018-03-03T21:45:16.152Z,0.60
2018-03-03T21:50:19.365Z,0.60
2018-03-03T21:55:22.575Z,0.60
2018-03-03T22:00:25.860Z,0.60
2018-03-03T22:05:29.124Z,0.70
2018-03-03T22:10:32.538Z,0.60
2018-03-03T22:15:36.139Z,0.60
2018-03-03T22:20:40.096Z,0.60
2018-03-03T22:25:43.329Z,0.60
2018-03-03T22:30:46.966Z,0.60
2018-03-03T22:35:51.819Z,0.50
2018-03-03T22:40:56.003Z,0.50
2018-03-03T22:45:59.447Z,0.50
2018-03-03T22:51:03.526Z,0.60
2018-03-03T22:56:06.860Z,0.60
2018-03-03T23:01:10.495Z,0.70
2018-03-03T23:06:14.176Z,0.70
2018-03-03T23:11:24.047Z,0.80
2018-03-03T23:16:28.773Z,0.90
2018-03-03T23:21:32.710Z,1.10
2018-03-03T23:26:37.431Z,1.10
2018-03-03T23:31:41.208Z,1.10
2018-03-03T23:36:44.657Z,1.10
2018-03-03T23:41:47.942Z,1.00
2018-03-03T23:46:52.225Z,1.00
2018-03-03T23:51:55.496Z,1.00
2018-03-03T23:56:58.746Z,1.00
